sensor_id;sensor_type;location;lat;lon;timestamp;P1;durP1;ratioP1;P2;durP2;ratioP2
19727;SDS011;10015;52.530;13.390;2023-08-01T00:00:02;6.83;;;2.77;;
19727;SDS011;10015;52.530;13.390;2023-08-01T00:02:37;5.13;;;2.97;;
19727;SDS011;10015;52.530;13.390;2023-08-01T00:05:04;5.80;;;3.00;;
19727;SDS011;10015;52.530;13.390;2023-08-01T00:07:30;8.07;;;3.10;;
19727;SDS011;10015;52.530;13.390;2023-08-01T00:09:56;5.97;;;2.90;;
19727;SDS011;10015;52.530;13.390;2023-08-01T00:12:23;4.85;;;2.65;;
19727;SDS011;10015;52.530;13.390;2023-08-01T00:14:49;5.40;;;3.10;;
19727;SDS011;10015;52.530;13.390;2023-08-01T00:17:15;8.60;;;3.00;;
19727;SDS011;10015;52.530;13.390;2023-08-01T00:19:41;5.17;;;3.17;;
19727;SDS011;10015;52.530;13.390;2023-08-01T00:22:07;6.33;;;2.83;;
19727;SDS011;10015;52.530;13.390;2023-08-01T00:24:33;7.00;;;3.40;;
19727;SDS011;10015;52.530;13.390;2023-08-01T00:26:59;7.23;;;2.67;;
19727;SDS011;10015;52.530;13.390;2023-08-01T00:29:25;4.43;;;2.83;;
19727;SDS011;10015;52.530;13.390;2023-08-01T00:31:50;4.77;;;2.90;;
19727;SDS011;10015;52.530;13.390;2023-08-01T00:34:16;5.10;;;2.50;;
19727;SDS011;10015;52.530;13.390;2023-08-01T00:36:42;6.97;;;2.60;;
19727;SDS011;10015;52.530;13.390;2023-08-01T00:39:08;4.93;;;2.80;;
19727;SDS011;10015;52.530;13.390;2023-08-01T00:41:34;6.03;;;2.67;;
19727;SDS011;10015;52.530;13.390;2023-08-01T00:44:00;3.70;;;2.43;;
19727;SDS011;10015;52.530;13.390;2023-08-01T00:46:26;5.13;;;2.40;;
19727;SDS011;10015;52.530;13.390;2023-08-01T00:48:53;5.67;;;2.30;;
19727;SDS011;10015;52.530;13.390;2023-08-01T00:51:23;4.77;;;2.10;;
19727;SDS011;10015;52.530;13.390;2023-08-01T00:53:51;4.80;;;2.43;;
19727;SDS011;10015;52.530;13.390;2023-08-01T00:56:17;3.60;;;2.07;;
19727;SDS011;10015;52.530;13.390;2023-08-01T00:58:44;4.07;;;2.30;;
19727;SDS011;10015;52.530;13.390;2023-08-01T01:01:10;6.23;;;2.20;;
19727;SDS011;10015;52.530;13.390;2023-08-01T01:03:36;4.10;;;2.50;;
19727;SDS011;10015;52.530;13.390;2023-08-01T01:08:34;3.87;;;2.10;;
19727;SDS011;10015;52.530;13.390;2023-08-01T01:11:00;4.20;;;2.47;;
19727;SDS011;10015;52.530;13.390;2023-08-01T01:13:26;3.63;;;2.20;;
19727;SDS011;10015;52.530;13.390;2023-08-01T01:15:52;4.53;;;2.13;;
19727;SDS011;10015;52.530;13.390;2023-08-01T01:18:18;3.27;;;2.30;;
19727;SDS011;10015;52.530;13.390;2023-08-01T01:20:44;9.20;;;2.63;;
19727;SDS011;10015;52.530;13.390;2023-08-01T01:23:10;4.60;;;2.30;;
19727;SDS011;10015;52.530;13.390;2023-08-01T01:25:37;2.87;;;1.93;;
19727;SDS011;10015;52.530;13.390;2023-08-01T01:28:05;4.40;;;2.60;;
19727;SDS011;10015;52.530;13.390;2023-08-01T01:30:32;3.73;;;2.40;;
19727;SDS011;10015;52.530;13.390;2023-08-01T01:32:59;6.27;;;2.60;;
19727;SDS011;10015;52.530;13.390;2023-08-01T01:35:26;5.57;;;2.60;;
19727;SDS011;10015;52.530;13.390;2023-08-01T01:37:52;5.00;;;2.60;;
19727;SDS011;10015;52.530;13.390;2023-08-01T01:40:17;5.43;;;2.33;;
19727;SDS011;10015;52.530;13.390;2023-08-01T01:42:43;3.73;;;2.60;;
19727;SDS011;10015;52.530;13.390;2023-08-01T01:45:09;5.80;;;2.60;;
19727;SDS011;10015;52.530;13.390;2023-08-01T01:47:36;5.03;;;2.57;;
19727;SDS011;10015;52.530;13.390;2023-08-01T01:50:01;5.33;;;2.43;;
19727;SDS011;10015;52.530;13.390;2023-08-01T01:52:28;7.30;;;2.80;;
19727;SDS011;10015;52.530;13.390;2023-08-01T01:54:54;6.50;;;2.80;;
19727;SDS011;10015;52.530;13.390;2023-08-01T01:57:20;4.40;;;3.00;;
19727;SDS011;10015;52.530;13.390;2023-08-01T01:59:46;6.37;;;3.03;;
19727;SDS011;10015;52.530;13.390;2023-08-01T02:02:12;3.13;;;2.23;;
19727;SDS011;10015;52.530;13.390;2023-08-01T02:04:38;6.10;;;2.87;;
19727;SDS011;10015;52.530;13.390;2023-08-01T02:07:04;7.03;;;2.80;;
19727;SDS011;10015;52.530;13.390;2023-08-01T02:09:30;5.40;;;2.57;;
19727;SDS011;10015;52.530;13.390;2023-08-01T02:11:56;5.77;;;2.77;;
19727;SDS011;10015;52.530;13.390;2023-08-01T02:14:23;4.73;;;2.27;;
19727;SDS011;10015;52.530;13.390;2023-08-01T02:16:49;5.00;;;2.30;;
19727;SDS011;10015;52.530;13.390;2023-08-01T02:19:14;5.80;;;3.30;;
19727;SDS011;10015;52.530;13.390;2023-08-01T02:21:40;4.17;;;2.57;;
19727;SDS011;10015;52.530;13.390;2023-08-01T02:24:06;4.83;;;2.40;;
19727;SDS011;10015;52.530;13.390;2023-08-01T02:26:32;4.43;;;2.50;;
19727;SDS011;10015;52.530;13.390;2023-08-01T02:28:58;5.27;;;2.13;;
19727;SDS011;10015;52.530;13.390;2023-08-01T02:31:24;4.67;;;2.60;;
19727;SDS011;10015;52.530;13.390;2023-08-01T02:33:50;4.77;;;2.90;;
19727;SDS011;10015;52.530;13.390;2023-08-01T02:36:16;3.97;;;2.70;;
19727;SDS011;10015;52.530;13.390;2023-08-01T02:38:42;5.30;;;2.90;;
19727;SDS011;10015;52.530;13.390;2023-08-01T02:41:07;4.70;;;2.80;;
19727;SDS011;10015;52.530;13.390;2023-08-01T02:43:33;4.90;;;2.77;;
19727;SDS011;10015;52.530;13.390;2023-08-01T02:46:01;5.03;;;2.80;;
19727;SDS011;10015;52.530;13.390;2023-08-01T02:48:28;4.00;;;2.40;;
19727;SDS011;10015;52.530;13.390;2023-08-01T02:50:54;5.40;;;2.53;;
19727;SDS011;10015;52.530;13.390;2023-08-01T02:53:19;6.00;;;3.00;;
19727;SDS011;10015;52.530;13.390;2023-08-01T02:55:45;3.80;;;2.30;;
19727;SDS011;10015;52.530;13.390;2023-08-01T02:58:12;4.33;;;2.80;;
19727;SDS011;10015;52.530;13.390;2023-08-01T03:00:38;3.90;;;2.50;;
19727;SDS011;10015;52.530;13.390;2023-08-01T03:03:05;5.63;;;3.10;;
19727;SDS011;10015;52.530;13.390;2023-08-01T03:05:31;5.53;;;2.50;;
19727;SDS011;10015;52.530;13.390;2023-08-01T03:07:58;4.40;;;2.70;;
19727;SDS011;10015;52.530;13.390;2023-08-01T03:10:24;5.00;;;2.67;;
19727;SDS011;10015;52.530;13.390;2023-08-01T03:12:50;4.10;;;2.17;;
19727;SDS011;10015;52.530;13.390;2023-08-01T03:15:17;4.60;;;3.00;;
19727;SDS011;10015;52.530;13.390;2023-08-01T03:17:43;5.23;;;2.80;;
19727;SDS011;10015;52.530;13.390;2023-08-01T03:20:09;2.83;;;2.30;;
19727;SDS011;10015;52.530;13.390;2023-08-01T03:22:39;6.37;;;2.80;;
19727;SDS011;10015;52.530;13.390;2023-08-01T03:25:07;6.17;;;2.70;;
19727;SDS011;10015;52.530;13.390;2023-08-01T03:27:34;6.80;;;3.37;;
19727;SDS011;10015;52.530;13.390;2023-08-01T03:30:00;4.70;;;2.33;;
19727;SDS011;10015;52.530;13.390;2023-08-01T03:32:26;4.40;;;2.70;;
19727;SDS011;10015;52.530;13.390;2023-08-01T03:34:52;7.23;;;2.80;;
19727;SDS011;10015;52.530;13.390;2023-08-01T03:37:18;5.40;;;2.73;;
19727;SDS011;10015;52.530;13.390;2023-08-01T03:39:44;4.27;;;2.43;;
19727;SDS011;10015;52.530;13.390;2023-08-01T03:42:10;3.80;;;2.47;;
19727;SDS011;10015;52.530;13.390;2023-08-01T03:44:36;6.33;;;2.60;;
19727;SDS011;10015;52.530;13.390;2023-08-01T03:47:02;5.63;;;2.90;;
19727;SDS011;10015;52.530;13.390;2023-08-01T03:49:28;4.90;;;2.57;;
19727;SDS011;10015;52.530;13.390;2023-08-01T03:51:54;5.27;;;2.40;;
19727;SDS011;10015;52.530;13.390;2023-08-01T03:54:20;6.83;;;2.87;;
19727;SDS011;10015;52.530;13.390;2023-08-01T03:56:46;5.00;;;2.70;;
19727;SDS011;10015;52.530;13.390;2023-08-01T03:59:14;5.33;;;2.60;;
19727;SDS011;10015;52.530;13.390;2023-08-01T04:01:40;6.07;;;2.90;;
19727;SDS011;10015;52.530;13.390;2023-08-01T04:04:07;4.70;;;2.40;;
19727;SDS011;10015;52.530;13.390;2023-08-01T04:06:36;4.83;;;2.90;;
19727;SDS011;10015;52.530;13.390;2023-08-01T04:09:02;5.83;;;3.00;;
19727;SDS011;10015;52.530;13.390;2023-08-01T04:11:28;5.10;;;2.73;;
19727;SDS011;10015;52.530;13.390;2023-08-01T04:13:55;5.30;;;2.73;;
19727;SDS011;10015;52.530;13.390;2023-08-01T04:16:21;4.97;;;2.97;;
19727;SDS011;10015;52.530;13.390;2023-08-01T04:18:47;7.03;;;2.50;;
19727;SDS011;10015;52.530;13.390;2023-08-01T04:21:13;4.63;;;2.90;;
19727;SDS011;10015;52.530;13.390;2023-08-01T04:23:40;4.90;;;2.50;;
19727;SDS011;10015;52.530;13.390;2023-08-01T04:26:06;5.43;;;2.37;;
19727;SDS011;10015;52.530;13.390;2023-08-01T04:28:32;4.23;;;2.60;;
19727;SDS011;10015;52.530;13.390;2023-08-01T04:30:59;4.73;;;2.80;;
19727;SDS011;10015;52.530;13.390;2023-08-01T04:33:25;4.43;;;2.37;;
19727;SDS011;10015;52.530;13.390;2023-08-01T04:35:51;3.50;;;2.43;;
19727;SDS011;10015;52.530;13.390;2023-08-01T04:38:17;3.17;;;2.30;;
19727;SDS011;10015;52.530;13.390;2023-08-01T04:40:43;4.23;;;2.50;;
19727;SDS011;10015;52.530;13.390;2023-08-01T04:43:09;4.07;;;2.43;;
19727;SDS011;10015;52.530;13.390;2023-08-01T04:45:36;2.80;;;2.20;;
19727;SDS011;10015;52.530;13.390;2023-08-01T04:48:02;4.03;;;2.50;;
19727;SDS011;10015;52.530;13.390;2023-08-01T04:50:28;3.40;;;2.20;;
19727;SDS011;10015;52.530;13.390;2023-08-01T04:52:54;3.13;;;2.27;;
19727;SDS011;10015;52.530;13.390;2023-08-01T04:55:20;4.77;;;2.47;;
19727;SDS011;10015;52.530;13.390;2023-08-01T04:57:46;5.80;;;2.80;;
19727;SDS011;10015;52.530;13.390;2023-08-01T05:00:12;4.77;;;2.40;;
19727;SDS011;10015;52.530;13.390;2023-08-01T05:02:39;4.30;;;2.53;;
19727;SDS011;10015;52.530;13.390;2023-08-01T05:05:05;4.90;;;2.20;;
19727;SDS011;10015;52.530;13.390;2023-08-01T05:07:34;3.93;;;2.37;;
19727;SDS011;10015;52.530;13.390;2023-08-01T05:10:00;4.13;;;2.40;;
19727;SDS011;10015;52.530;13.390;2023-08-01T05:12:26;4.23;;;2.43;;
19727;SDS011;10015;52.530;13.390;2023-08-01T05:14:52;4.07;;;2.20;;
19727;SDS011;10015;52.530;13.390;2023-08-01T05:17:18;4.47;;;2.37;;
19727;SDS011;10015;52.530;13.390;2023-08-01T05:19:44;5.83;;;2.20;;
19727;SDS011;10015;52.530;13.390;2023-08-01T05:22:09;3.97;;;2.57;;
19727;SDS011;10015;52.530;13.390;2023-08-01T05:24:36;3.67;;;2.50;;
19727;SDS011;10015;52.530;13.390;2023-08-01T05:27:01;5.40;;;2.50;;
19727;SDS011;10015;52.530;13.390;2023-08-01T05:29:27;5.03;;;2.50;;
19727;SDS011;10015;52.530;13.390;2023-08-01T05:31:53;4.63;;;2.30;;
19727;SDS011;10015;52.530;13.390;2023-08-01T05:34:19;4.73;;;2.80;;
19727;SDS011;10015;52.530;13.390;2023-08-01T05:36:45;3.37;;;2.30;;
19727;SDS011;10015;52.530;13.390;2023-08-01T05:39:14;4.57;;;2.23;;
19727;SDS011;10015;52.530;13.390;2023-08-01T05:41:40;5.57;;;2.40;;
19727;SDS011;10015;52.530;13.390;2023-08-01T05:44:06;4.57;;;2.50;;
19727;SDS011;10015;52.530;13.390;2023-08-01T05:46:32;7.40;;;2.80;;
19727;SDS011;10015;52.530;13.390;2023-08-01T05:48:57;5.07;;;2.40;;
19727;SDS011;10015;52.530;13.390;2023-08-01T05:51:23;4.67;;;2.37;;
19727;SDS011;10015;52.530;13.390;2023-08-01T05:53:49;6.97;;;2.90;;
19727;SDS011;10015;52.530;13.390;2023-08-01T05:56:16;6.80;;;3.07;;
19727;SDS011;10015;52.530;13.390;2023-08-01T05:58:42;3.90;;;2.37;;
19727;SDS011;10015;52.530;13.390;2023-08-01T06:01:10;4.40;;;2.60;;
19727;SDS011;10015;52.530;13.390;2023-08-01T06:03:37;6.87;;;2.63;;
19727;SDS011;10015;52.530;13.390;2023-08-01T06:06:03;4.13;;;2.50;;
19727;SDS011;10015;52.530;13.390;2023-08-01T06:08:30;6.90;;;2.83;;
19727;SDS011;10015;52.530;13.390;2023-08-01T06:10:56;3.90;;;2.47;;
19727;SDS011;10015;52.530;13.390;2023-08-01T06:13:22;4.33;;;2.70;;
19727;SDS011;10015;52.530;13.390;2023-08-01T06:15:49;3.37;;;2.50;;
19727;SDS011;10015;52.530;13.390;2023-08-01T06:18:15;4.83;;;2.50;;
19727;SDS011;10015;52.530;13.390;2023-08-01T06:20:41;4.17;;;2.80;;
19727;SDS011;10015;52.530;13.390;2023-08-01T06:23:07;5.30;;;2.87;;
19727;SDS011;10015;52.530;13.390;2023-08-01T06:25:33;4.80;;;2.27;;
19727;SDS011;10015;52.530;13.390;2023-08-01T06:27:59;3.83;;;2.10;;
19727;SDS011;10015;52.530;13.390;2023-08-01T06:30:26;6.27;;;2.43;;
19727;SDS011;10015;52.530;13.390;2023-08-01T06:32:52;4.07;;;2.50;;
19727;SDS011;10015;52.530;13.390;2023-08-01T06:35:18;5.50;;;2.47;;
19727;SDS011;10015;52.530;13.390;2023-08-01T06:37:44;4.83;;;2.47;;
19727;SDS011;10015;52.530;13.390;2023-08-01T06:40:11;4.00;;;2.40;;
19727;SDS011;10015;52.530;13.390;2023-08-01T06:42:38;5.30;;;2.47;;
19727;SDS011;10015;52.530;13.390;2023-08-01T06:45:04;4.50;;;2.20;;
19727;SDS011;10015;52.530;13.390;2023-08-01T06:47:30;4.63;;;2.60;;
19727;SDS011;10015;52.530;13.390;2023-08-01T06:49:56;3.87;;;2.20;;
19727;SDS011;10015;52.530;13.390;2023-08-01T06:52:22;7.00;;;2.63;;
19727;SDS011;10015;52.530;13.390;2023-08-01T06:54:48;4.70;;;2.53;;
19727;SDS011;10015;52.530;13.390;2023-08-01T06:57:13;4.30;;;2.40;;
19727;SDS011;10015;52.530;13.390;2023-08-01T06:59:39;3.83;;;2.47;;
19727;SDS011;10015;52.530;13.390;2023-08-01T07:02:05;5.13;;;2.33;;
19727;SDS011;10015;52.530;13.390;2023-08-01T07:04:32;3.90;;;2.10;;
19727;SDS011;10015;52.530;13.390;2023-08-01T07:06:59;4.37;;;2.13;;
19727;SDS011;10015;52.530;13.390;2023-08-01T07:09:25;7.10;;;2.47;;
19727;SDS011;10015;52.530;13.390;2023-08-01T07:11:51;4.93;;;2.23;;
19727;SDS011;10015;52.530;13.390;2023-08-01T07:14:17;4.67;;;2.03;;
19727;SDS011;10015;52.530;13.390;2023-08-01T07:16:43;2.77;;;1.93;;
19727;SDS011;10015;52.530;13.390;2023-08-01T07:19:09;3.67;;;2.13;;
19727;SDS011;10015;52.530;13.390;2023-08-01T07:21:35;4.57;;;2.20;;
19727;SDS011;10015;52.530;13.390;2023-08-01T07:24:01;3.87;;;2.33;;
19727;SDS011;10015;52.530;13.390;2023-08-01T07:26:27;3.77;;;2.20;;
19727;SDS011;10015;52.530;13.390;2023-08-01T07:28:54;3.57;;;2.00;;
19727;SDS011;10015;52.530;13.390;2023-08-01T07:31:20;3.97;;;2.00;;
19727;SDS011;10015;52.530;13.390;2023-08-01T07:33:46;3.57;;;2.27;;
19727;SDS011;10015;52.530;13.390;2023-08-01T07:36:12;4.27;;;2.00;;
19727;SDS011;10015;52.530;13.390;2023-08-01T07:38:38;4.53;;;2.03;;
19727;SDS011;10015;52.530;13.390;2023-08-01T07:41:04;2.93;;;2.10;;
19727;SDS011;10015;52.530;13.390;2023-08-01T07:43:32;3.57;;;1.93;;
19727;SDS011;10015;52.530;13.390;2023-08-01T07:45:59;3.33;;;2.13;;
19727;SDS011;10015;52.530;13.390;2023-08-01T07:48:25;2.87;;;1.90;;
19727;SDS011;10015;52.530;13.390;2023-08-01T07:50:51;3.40;;;2.00;;
19727;SDS011;10015;52.530;13.390;2023-08-01T07:53:23;2.97;;;1.60;;
19727;SDS011;10015;52.530;13.390;2023-08-01T07:55:48;3.50;;;2.20;;
19727;SDS011;10015;52.530;13.390;2023-08-01T07:58:16;2.63;;;1.90;;
19727;SDS011;10015;52.530;13.390;2023-08-01T08:00:42;2.93;;;1.90;;
19727;SDS011;10015;52.530;13.390;2023-08-01T08:03:08;2.70;;;2.10;;
19727;SDS011;10015;52.530;13.390;2023-08-01T08:05:35;3.15;;;1.90;;
19727;SDS011;10015;52.530;13.390;2023-08-01T08:08:05;4.18;;;2.35;;
19727;SDS011;10015;52.530;13.390;2023-08-01T08:10:31;6.43;;;2.10;;
19727;SDS011;10015;52.530;13.390;2023-08-01T08:12:57;2.97;;;1.80;;
19727;SDS011;10015;52.530;13.390;2023-08-01T08:15:23;2.35;;;1.80;;
19727;SDS011;10015;52.530;13.390;2023-08-01T08:17:50;2.13;;;1.60;;
19727;SDS011;10015;52.530;13.390;2023-08-01T08:20:16;2.20;;;1.70;;
19727;SDS011;10015;52.530;13.390;2023-08-01T08:22:42;5.63;;;1.80;;
19727;SDS011;10015;52.530;13.390;2023-08-01T08:25:08;2.85;;;1.70;;
19727;SDS011;10015;52.530;13.390;2023-08-01T08:27:34;3.88;;;2.08;;
19727;SDS011;10015;52.530;13.390;2023-08-01T08:30:00;7.70;;;1.83;;
19727;SDS011;10015;52.530;13.390;2023-08-01T08:32:26;3.08;;;1.92;;
19727;SDS011;10015;52.530;13.390;2023-08-01T08:34:52;2.40;;;1.80;;
19727;SDS011;10015;52.530;13.390;2023-08-01T08:37:18;5.72;;;1.90;;
19727;SDS011;10015;52.530;13.390;2023-08-01T08:39:44;4.22;;;2.30;;
19727;SDS011;10015;52.530;13.390;2023-08-01T08:42:10;3.50;;;2.08;;
19727;SDS011;10015;52.530;13.390;2023-08-01T08:44:41;2.58;;;1.50;;
19727;SDS011;10015;52.530;13.390;2023-08-01T08:47:08;3.65;;;1.73;;
19727;SDS011;10015;52.530;13.390;2023-08-01T08:49:38;1.75;;;1.52;;
19727;SDS011;10015;52.530;13.390;2023-08-01T08:52:05;1.98;;;1.40;;
19727;SDS011;10015;52.530;13.390;2023-08-01T08:54:32;3.28;;;1.83;;
19727;SDS011;10015;52.530;13.390;2023-08-01T08:56:59;2.30;;;1.40;;
19727;SDS011;10015;52.530;13.390;2023-08-01T08:59:25;1.70;;;1.35;;
19727;SDS011;10015;52.530;13.390;2023-08-01T09:01:54;3.35;;;1.88;;
19727;SDS011;10015;52.530;13.390;2023-08-01T09:04:21;3.08;;;1.60;;
19727;SDS011;10015;52.530;13.390;2023-08-01T09:06:50;3.55;;;1.50;;
19727;SDS011;10015;52.530;13.390;2023-08-01T09:09:20;1.42;;;1.25;;
19727;SDS011;10015;52.530;13.390;2023-08-01T09:11:49;2.58;;;1.50;;
19727;SDS011;10015;52.530;13.390;2023-08-01T09:14:16;2.55;;;1.58;;
19727;SDS011;10015;52.530;13.390;2023-08-01T09:16:44;2.33;;;1.50;;
19727;SDS011;10015;52.530;13.390;2023-08-01T09:19:11;2.75;;;1.30;;
19727;SDS011;10015;52.530;13.390;2023-08-01T09:21:41;3.33;;;1.40;;
19727;SDS011;10015;52.530;13.390;2023-08-01T09:24:11;1.67;;;1.30;;
19727;SDS011;10015;52.530;13.390;2023-08-01T09:26:42;2.35;;;1.30;;
19727;SDS011;10015;52.530;13.390;2023-08-01T09:29:08;6.88;;;2.38;;
19727;SDS011;10015;52.530;13.390;2023-08-01T09:31:36;2.17;;;1.30;;
19727;SDS011;10015;52.530;13.390;2023-08-01T09:34:04;3.50;;;1.15;;
19727;SDS011;10015;52.530;13.390;2023-08-01T09:36:35;2.25;;;1.17;;
19727;SDS011;10015;52.530;13.390;2023-08-01T09:39:01;1.95;;;1.20;;
19727;SDS011;10015;52.530;13.390;2023-08-01T09:41:29;2.38;;;1.13;;
19727;SDS011;10015;52.530;13.390;2023-08-01T09:43:56;4.43;;;1.42;;
19727;SDS011;10015;52.530;13.390;2023-08-01T09:46:23;2.67;;;1.25;;
19727;SDS011;10015;52.530;13.390;2023-08-01T09:48:50;3.53;;;1.40;;
19727;SDS011;10015;52.530;13.390;2023-08-01T09:51:16;1.45;;;0.80;;
19727;SDS011;10015;52.530;13.390;2023-08-01T09:53:54;2.00;;;1.15;;
19727;SDS011;10015;52.530;13.390;2023-08-01T09:56:25;2.05;;;1.05;;
19727;SDS011;10015;52.530;13.390;2023-08-01T09:58:53;3.38;;;1.10;;
19727;SDS011;10015;52.530;13.390;2023-08-01T10:01:21;1.10;;;1.00;;
19727;SDS011;10015;52.530;13.390;2023-08-01T10:03:50;2.58;;;1.10;;
19727;SDS011;10015;52.530;13.390;2023-08-01T10:06:21;1.63;;;1.00;;
19727;SDS011;10015;52.530;13.390;2023-08-01T10:08:49;2.05;;;1.40;;
19727;SDS011;10015;52.530;13.390;2023-08-01T10:11:17;1.77;;;1.08;;
19727;SDS011;10015;52.530;13.390;2023-08-01T10:13:45;0.95;;;0.80;;
19727;SDS011;10015;52.530;13.390;2023-08-01T10:16:12;7.40;;;4.78;;
19727;SDS011;10015;52.530;13.390;2023-08-01T10:18:40;1.73;;;1.02;;
19727;SDS011;10015;52.530;13.390;2023-08-01T10:21:07;1.05;;;0.82;;
19727;SDS011;10015;52.530;13.390;2023-08-01T10:23:35;0.90;;;0.90;;
19727;SDS011;10015;52.530;13.390;2023-08-01T10:26:03;1.55;;;0.93;;
19727;SDS011;10015;52.530;13.390;2023-08-01T10:28:34;1.92;;;0.80;;
19727;SDS011;10015;52.530;13.390;2023-08-01T10:31:14;1.13;;;1.00;;
19727;SDS011;10015;52.530;13.390;2023-08-01T10:33:42;1.48;;;0.80;;
19727;SDS011;10015;52.530;13.390;2023-08-01T10:36:17;2.35;;;1.20;;
19727;SDS011;10015;52.530;13.390;2023-08-01T10:38:53;2.85;;;1.13;;
19727;SDS011;10015;52.530;13.390;2023-08-01T10:41:35;1.35;;;1.20;;
19727;SDS011;10015;52.530;13.390;2023-08-01T10:44:09;2.33;;;1.13;;
19727;SDS011;10015;52.530;13.390;2023-08-01T10:49:12;1.63;;;0.95;;
19727;SDS011;10015;52.530;13.390;2023-08-01T10:51:38;3.55;;;1.05;;
19727;SDS011;10015;52.530;13.390;2023-08-01T10:54:04;1.08;;;0.82;;
19727;SDS011;10015;52.530;13.390;2023-08-01T10:56:30;1.00;;;0.90;;
19727;SDS011;10015;52.530;13.390;2023-08-01T10:58:57;2.17;;;1.00;;
19727;SDS011;10015;52.530;13.390;2023-08-01T11:01:24;2.13;;;1.08;;
19727;SDS011;10015;52.530;13.390;2023-08-01T11:03:51;1.98;;;0.93;;
19727;SDS011;10015;52.530;13.390;2023-08-01T11:06:17;2.25;;;0.80;;
19727;SDS011;10015;52.530;13.390;2023-08-01T11:08:44;2.20;;;0.93;;
19727;SDS011;10015;52.530;13.390;2023-08-01T11:11:13;1.38;;;0.77;;
19727;SDS011;10015;52.530;13.390;2023-08-01T11:13:40;2.55;;;1.00;;
19727;SDS011;10015;52.530;13.390;2023-08-01T11:16:06;1.63;;;0.90;;
19727;SDS011;10015;52.530;13.390;2023-08-01T11:18:42;1.45;;;0.93;;
19727;SDS011;10015;52.530;13.390;2023-08-01T11:21:09;0.98;;;0.70;;
19727;SDS011;10015;52.530;13.390;2023-08-01T11:23:35;1.77;;;1.00;;
19727;SDS011;10015;52.530;13.390;2023-08-01T11:26:10;1.50;;;0.88;;
19727;SDS011;10015;52.530;13.390;2023-08-01T11:28:36;1.05;;;0.88;;
19727;SDS011;10015;52.530;13.390;2023-08-01T11:31:12;1.83;;;1.13;;
19727;SDS011;10015;52.530;13.390;2023-08-01T11:33:38;1.60;;;1.10;;
19727;SDS011;10015;52.530;13.390;2023-08-01T11:36:04;2.03;;;1.33;;
19727;SDS011;10015;52.530;13.390;2023-08-01T11:38:32;2.67;;;1.30;;
19727;SDS011;10015;52.530;13.390;2023-08-01T11:41:03;2.13;;;1.05;;
19727;SDS011;10015;52.530;13.390;2023-08-01T11:43:42;1.55;;;1.20;;
19727;SDS011;10015;52.530;13.390;2023-08-01T11:46:09;2.85;;;1.45;;
19727;SDS011;10015;52.530;13.390;2023-08-01T11:48:36;2.80;;;1.50;;
19727;SDS011;10015;52.530;13.390;2023-08-01T11:51:02;2.67;;;1.70;;
19727;SDS011;10015;52.530;13.390;2023-08-01T11:53:28;2.63;;;1.52;;
19727;SDS011;10015;52.530;13.390;2023-08-01T11:55:55;3.40;;;1.90;;
19727;SDS011;10015;52.530;13.390;2023-08-01T12:01:11;4.25;;;2.42;;
19727;SDS011;10015;52.530;13.390;2023-08-01T12:03:48;4.13;;;1.63;;
19727;SDS011;10015;52.530;13.390;2023-08-01T12:06:19;4.03;;;2.67;;
19727;SDS011;10015;52.530;13.390;2023-08-01T12:08:47;4.90;;;2.08;;
19727;SDS011;10015;52.530;13.390;2023-08-01T12:11:21;3.63;;;2.30;;
19727;SDS011;10015;52.530;13.390;2023-08-01T12:13:59;2.83;;;1.97;;
19727;SDS011;10015;52.530;13.390;2023-08-01T12:16:27;3.75;;;1.80;;
19727;SDS011;10015;52.530;13.390;2023-08-01T12:18:53;2.08;;;1.70;;
19727;SDS011;10015;52.530;13.390;2023-08-01T12:21:19;2.83;;;2.25;;
19727;SDS011;10015;52.530;13.390;2023-08-01T12:23:45;3.72;;;2.00;;
19727;SDS011;10015;52.530;13.390;2023-08-01T12:26:11;4.05;;;2.25;;
19727;SDS011;10015;52.530;13.390;2023-08-01T12:28:37;2.47;;;1.85;;
19727;SDS011;10015;52.530;13.390;2023-08-01T12:31:04;3.17;;;2.10;;
19727;SDS011;10015;52.530;13.390;2023-08-01T12:33:30;3.88;;;2.20;;
19727;SDS011;10015;52.530;13.390;2023-08-01T12:35:58;3.35;;;2.10;;
19727;SDS011;10015;52.530;13.390;2023-08-01T12:38:25;4.53;;;2.38;;
19727;SDS011;10015;52.530;13.390;2023-08-01T12:40:51;3.97;;;2.30;;
19727;SDS011;10015;52.530;13.390;2023-08-01T12:43:17;5.32;;;2.90;;
19727;SDS011;10015;52.530;13.390;2023-08-01T12:45:43;4.07;;;2.20;;
19727;SDS011;10015;52.530;13.390;2023-08-01T12:48:09;2.45;;;1.90;;
19727;SDS011;10015;52.530;13.390;2023-08-01T12:50:35;5.63;;;2.60;;
19727;SDS011;10015;52.530;13.390;2023-08-01T12:53:01;4.47;;;2.20;;
19727;SDS011;10015;52.530;13.390;2023-08-01T12:55:28;4.18;;;2.45;;
19727;SDS011;10015;52.530;13.390;2023-08-01T12:57:54;4.85;;;2.28;;
19727;SDS011;10015;52.530;13.390;2023-08-01T13:00:21;5.18;;;2.50;;
19727;SDS011;10015;52.530;13.390;2023-08-01T13:02:47;4.25;;;2.70;;
19727;SDS011;10015;52.530;13.390;2023-08-01T13:05:15;3.78;;;2.55;;
19727;SDS011;10015;52.530;13.390;2023-08-01T13:07:41;5.57;;;2.55;;
19727;SDS011;10015;52.530;13.390;2023-08-01T13:10:08;6.22;;;2.83;;
19727;SDS011;10015;52.530;13.390;2023-08-01T13:12:34;4.68;;;2.47;;
19727;SDS011;10015;52.530;13.390;2023-08-01T13:15:01;4.03;;;2.28;;
19727;SDS011;10015;52.530;13.390;2023-08-01T13:17:27;4.05;;;2.63;;
19727;SDS011;10015;52.530;13.390;2023-08-01T13:19:53;3.88;;;2.55;;
19727;SDS011;10015;52.530;13.390;2023-08-01T13:22:20;3.00;;;2.63;;
19727;SDS011;10015;52.530;13.390;2023-08-01T13:24:46;3.35;;;2.15;;
19727;SDS011;10015;52.530;13.390;2023-08-01T13:27:13;3.65;;;2.28;;
19727;SDS011;10015;52.530;13.390;2023-08-01T13:29:39;3.40;;;2.10;;
19727;SDS011;10015;52.530;13.390;2023-08-01T13:32:05;3.85;;;2.83;;
19727;SDS011;10015;52.530;13.390;2023-08-01T13:34:32;5.20;;;2.40;;
19727;SDS011;10015;52.530;13.390;2023-08-01T13:36:59;4.20;;;2.50;;
19727;SDS011;10015;52.530;13.390;2023-08-01T13:39:25;5.45;;;2.53;;
19727;SDS011;10015;52.530;13.390;2023-08-01T13:41:51;5.03;;;2.60;;
19727;SDS011;10015;52.530;13.390;2023-08-01T13:44:17;3.78;;;2.40;;
19727;SDS011;10015;52.530;13.390;2023-08-01T13:46:43;5.90;;;2.70;;
19727;SDS011;10015;52.530;13.390;2023-08-01T13:49:10;3.80;;;2.63;;
19727;SDS011;10015;52.530;13.390;2023-08-01T13:51:35;6.35;;;2.38;;
19727;SDS011;10015;52.530;13.390;2023-08-01T13:54:01;3.83;;;2.60;;
19727;SDS011;10015;52.530;13.390;2023-08-01T13:56:28;3.85;;;2.50;;
19727;SDS011;10015;52.530;13.390;2023-08-01T13:58:54;5.10;;;2.53;;
19727;SDS011;10015;52.530;13.390;2023-08-01T14:01:20;4.10;;;2.40;;
19727;SDS011;10015;52.530;13.390;2023-08-01T14:03:46;4.20;;;2.63;;
19727;SDS011;10015;52.530;13.390;2023-08-01T14:06:13;3.78;;;2.22;;
19727;SDS011;10015;52.530;13.390;2023-08-01T14:08:40;6.28;;;2.45;;
19727;SDS011;10015;52.530;13.390;2023-08-01T14:11:07;4.45;;;2.60;;
19727;SDS011;10015;52.530;13.390;2023-08-01T14:13:35;5.05;;;2.75;;
19727;SDS011;10015;52.530;13.390;2023-08-01T14:16:02;5.60;;;2.50;;
19727;SDS011;10015;52.530;13.390;2023-08-01T14:18:28;4.15;;;2.55;;
19727;SDS011;10015;52.530;13.390;2023-08-01T14:20:55;3.53;;;2.25;;
19727;SDS011;10015;52.530;13.390;2023-08-01T14:23:21;4.32;;;2.55;;
19727;SDS011;10015;52.530;13.390;2023-08-01T14:25:48;3.58;;;2.30;;
19727;SDS011;10015;52.530;13.390;2023-08-01T14:28:14;5.75;;;2.42;;
19727;SDS011;10015;52.530;13.390;2023-08-01T14:30:41;5.93;;;2.50;;
19727;SDS011;10015;52.530;13.390;2023-08-01T14:33:08;5.03;;;2.30;;
19727;SDS011;10015;52.530;13.390;2023-08-01T14:35:37;4.43;;;2.30;;
19727;SDS011;10015;52.530;13.390;2023-08-01T14:38:04;5.63;;;2.00;;